MUI weather

Muir Army Air Field (Fort Indiantown Gap) Airport
Fort Indiantown Gap(Annville), Pennsylvania, United States

Public forecast

Using degrees Fahrenheit for public forecast. Weather courtesy of forecast.io.

METAR (pilot weather report)

Retrieved 2019/04/19 15:56 UTC (9 minutes ago):

KMUI 191556Z 18011G20KT 10SM BKN030 OVC120 22/16 A2973 RMK AO2A SLP069 T02190159

TAF (pilot weather forecast)

Retrieved 2019/04/19 11:39 UTC (4 hours ago):

TAF TAF KMUI 191100Z 1911/2017 18009KT 9999 FEW005 SCT010 BKN025 QNH2963INS BECMG 1914/1915 18012G20KT 8000 -RA OVC015 QNH2962INS BECMG 1919/1920 18012G18KT 6000 -RA OVC012 WS015/19040KT QNH2961INS TEMPO 1920/1924 20020G30KT 3200 -TSRA OVC008CB BECMG 2002/2003 18012G18KT 6000 -RA OVC007 WS015/19040KT QNH2961INS BECMG 2012/2013 14012KT 9999 NSW OVC012 QNH2960INS BECMG 2014/2015 14012KT 9999 BKN015 QNH2960INS TX21/1920Z TN15/1913Z